< Typhoon 195312 1953 Season Typhoon 195314 >
Typhoon 195313 (TESS)
General InformationTrack Information on Google Maps || NewsDisaster Info.ResourceGoogle EarthGE AnimationAtom FeedGeoJSON
Detalied Best Track (Time Zone = UTC)
Year Month Day Hour Lat. Long. Pressure (hPa) Wind (kt) Class Image Chart
1953 9 16 12 6.5 153.0 1008 0 2 -- Chart
1953 9 16 18 7.8 152.3 1006 0 2 -- Chart
1953 9 17 00 9.0 151.5 1005 0 2 -- Chart
1953 9 17 06 9.5 150.2 1003 0 2 -- Chart
1953 9 17 12 9.8 149.2 1002 0 2 -- Chart
1953 9 17 18 10.0 148.2 1000 0 2 -- Chart
1953 9 18 00 10.3 147.2 998 0 9 -- Chart
1953 9 18 06 10.7 146.4 1001 0 9 -- Chart
1953 9 18 12 11.2 144.6 1002 0 9 -- Chart
1953 9 18 18 11.5 142.9 1002 0 9 -- Chart
1953 9 19 00 11.8 141.1 1002 0 2 -- Chart
1953 9 19 06 12.0 139.7 998 0 2 -- Chart
1953 9 19 12 12.1 138.9 998 0 9 -- Chart
1953 9 19 18 12.4 138.1 998 0 9 -- Chart
1953 9 20 00 12.7 137.3 995 0 9 -- Chart
1953 9 20 06 13.1 136.9 985 0 9 -- Chart
1953 9 20 12 13.5 136.5 985 0 9 -- Chart
1953 9 20 18 13.9 136.1 990 0 9 -- Chart
1953 9 21 00 14.3 135.8 996 0 9 -- Chart
1953 9 21 06 15.3 135.1 996 0 9 -- Chart
1953 9 21 12 16.4 134.5 995 0 9 -- Chart
1953 9 21 18 17.4 133.9 994 0 9 -- Chart
1953 9 22 00 18.5 133.5 993 0 9 -- Chart
1953 9 22 06 19.3 133.0 900 0 9 -- Chart
1953 9 22 12 19.7 132.7 900 0 9 -- Chart
1953 9 22 18 20.0 132.8 900 0 9 -- Chart
1953 9 23 00 20.9 132.8 915 0 9 -- Chart
1953 9 23 06 22.4 133.0 915 0 9 -- Chart
1953 9 23 12 23.5 133.3 915 0 9 -- Chart
1953 9 23 18 24.6 133.0 915 0 9 -- Chart
1953 9 24 00 25.7 132.9 915 0 9 -- Chart
1953 9 24 06 26.8 133.4 915 0 9 -- Chart
1953 9 24 12 28.3 133.7 915 0 9 -- Chart
1953 9 24 18 30.0 134.0 915 0 9 -- Chart
1953 9 25 00 31.7 134.9 930 0 9 -- Chart
1953 9 25 06 33.5 136.1 930 0 9 -- Chart
1953 9 25 12 35.8 137.9 974 0 9 -- Chart
1953 9 25 18 39.2 140.8 978 0 9 -- Chart
1953 9 26 00 41.4 143.5 978 0 9 -- Chart
1953 9 26 06 43.3 145.7 980 0 9 -- Chart
1953 9 26 12 44.5 148.0 980 0 9 -- Chart
1953 9 26 18 45.8 150.0 980 0 9 -- Chart
1953 9 27 00 47.5 151.4 980 0 9 -- Chart
1953 9 27 06 48.3 152.6 982 0 9 -- Chart
1953 9 27 12 49.7 152.6 986 0 9 -- Chart
1953 9 27 18 51.0 151.0 990 0 6 -- Chart
1953 9 28 00 51.0 152.5 990 0 6 -- Chart
1953 9 28 06 51.0 154.1 996 0 6 -- Chart
1953 9 28 12 51.0 154.6 996 0 6 -- Chart
1953 9 28 18 50.9 157.4 1000 0 6 -- Chart
1953 9 29 00 50.7 159.0 1002 0 6 -- Chart
1953 9 29 06 50.3 160.5 1003 0 6 -- Chart
Japan Meteorological Agency Best Track Data | Correction Date : 1989-06-01
< Typhoon 195312 1953 Season Typhoon 195314 >

Help